sensor_id;sensor_type;location;lat;lon;timestamp;P1;durP1;ratioP1;P2;durP2;ratioP2
10045;SDS011;5063;50.878;4.742;2022-12-10T00:01:13;32.60;;;18.73;;
10045;SDS011;5063;50.878;4.742;2022-12-10T00:03:41;34.90;;;19.03;;
10045;SDS011;5063;50.878;4.742;2022-12-10T00:06:08;39.37;;;19.33;;
10045;SDS011;5063;50.878;4.742;2022-12-10T00:08:36;34.73;;;18.73;;
10045;SDS011;5063;50.878;4.742;2022-12-10T00:11:02;33.10;;;17.37;;
10045;SDS011;5063;50.878;4.742;2022-12-10T00:13:29;31.10;;;17.07;;
10045;SDS011;5063;50.878;4.742;2022-12-10T00:15:55;32.40;;;17.80;;
10045;SDS011;5063;50.878;4.742;2022-12-10T00:18:24;28.67;;;16.17;;
10045;SDS011;5063;50.878;4.742;2022-12-10T00:20:49;33.77;;;17.57;;
10045;SDS011;5063;50.878;4.742;2022-12-10T00:23:15;31.73;;;16.57;;
10045;SDS011;5063;50.878;4.742;2022-12-10T00:25:41;36.50;;;19.23;;
10045;SDS011;5063;50.878;4.742;2022-12-10T00:28:06;34.97;;;18.87;;
10045;SDS011;5063;50.878;4.742;2022-12-10T00:30:32;35.33;;;18.37;;
10045;SDS011;5063;50.878;4.742;2022-12-10T00:32:58;37.43;;;19.00;;
10045;SDS011;5063;50.878;4.742;2022-12-10T00:35:24;34.17;;;18.43;;
10045;SDS011;5063;50.878;4.742;2022-12-10T00:37:50;35.43;;;18.33;;
10045;SDS011;5063;50.878;4.742;2022-12-10T00:40:15;37.30;;;18.73;;
10045;SDS011;5063;50.878;4.742;2022-12-10T00:42:41;34.57;;;18.47;;
10045;SDS011;5063;50.878;4.742;2022-12-10T00:45:07;37.17;;;18.57;;
10045;SDS011;5063;50.878;4.742;2022-12-10T00:47:33;37.10;;;19.43;;
10045;SDS011;5063;50.878;4.742;2022-12-10T00:49:58;37.23;;;20.03;;
10045;SDS011;5063;50.878;4.742;2022-12-10T00:52:24;43.93;;;20.07;;
10045;SDS011;5063;50.878;4.742;2022-12-10T00:54:50;36.83;;;19.23;;
10045;SDS011;5063;50.878;4.742;2022-12-10T00:57:15;43.27;;;21.53;;
10045;SDS011;5063;50.878;4.742;2022-12-10T00:59:41;38.80;;;19.67;;
10045;SDS011;5063;50.878;4.742;2022-12-10T01:02:07;41.23;;;20.67;;
10045;SDS011;5063;50.878;4.742;2022-12-10T01:04:32;38.00;;;20.83;;
10045;SDS011;5063;50.878;4.742;2022-12-10T01:06:58;38.47;;;20.03;;
10045;SDS011;5063;50.878;4.742;2022-12-10T01:09:27;43.37;;;20.43;;
10045;SDS011;5063;50.878;4.742;2022-12-10T01:11:55;38.17;;;21.00;;
10045;SDS011;5063;50.878;4.742;2022-12-10T01:14:26;40.17;;;21.53;;
10045;SDS011;5063;50.878;4.742;2022-12-10T01:16:55;39.37;;;20.33;;
10045;SDS011;5063;50.878;4.742;2022-12-10T01:19:27;33.47;;;18.73;;
10045;SDS011;5063;50.878;4.742;2022-12-10T01:21:54;38.47;;;17.97;;
10045;SDS011;5063;50.878;4.742;2022-12-10T01:24:21;37.60;;;19.73;;
10045;SDS011;5063;50.878;4.742;2022-12-10T01:26:50;36.17;;;17.50;;
10045;SDS011;5063;50.878;4.742;2022-12-10T01:29:17;37.43;;;18.67;;
10045;SDS011;5063;50.878;4.742;2022-12-10T01:31:43;33.13;;;18.57;;
10045;SDS011;5063;50.878;4.742;2022-12-10T01:34:10;33.53;;;17.00;;
10045;SDS011;5063;50.878;4.742;2022-12-10T01:36:39;34.73;;;18.70;;
10045;SDS011;5063;50.878;4.742;2022-12-10T01:39:08;35.80;;;17.33;;
10045;SDS011;5063;50.878;4.742;2022-12-10T01:41:37;35.03;;;17.37;;
10045;SDS011;5063;50.878;4.742;2022-12-10T01:46:35;34.50;;;17.03;;
10045;SDS011;5063;50.878;4.742;2022-12-10T01:49:04;32.67;;;16.07;;
10045;SDS011;5063;50.878;4.742;2022-12-10T01:51:33;31.43;;;16.40;;
10045;SDS011;5063;50.878;4.742;2022-12-10T01:54:01;29.23;;;15.67;;
10045;SDS011;5063;50.878;4.742;2022-12-10T01:56:29;28.37;;;14.83;;
10045;SDS011;5063;50.878;4.742;2022-12-10T01:59:00;33.97;;;15.93;;
10045;SDS011;5063;50.878;4.742;2022-12-10T02:07:17;32.07;;;16.20;;
10045;SDS011;5063;50.878;4.742;2022-12-10T02:18:13;39.23;;;17.73;;
10045;SDS011;5063;50.878;4.742;2022-12-10T02:20:46;34.17;;;16.37;;
10045;SDS011;5063;50.878;4.742;2022-12-10T02:25:58;31.10;;;17.00;;
10045;SDS011;5063;50.878;4.742;2022-12-10T02:31:26;32.80;;;16.80;;
10045;SDS011;5063;50.878;4.742;2022-12-10T02:33:56;33.10;;;16.07;;
10045;SDS011;5063;50.878;4.742;2022-12-10T02:36:25;29.67;;;16.40;;
10045;SDS011;5063;50.878;4.742;2022-12-10T02:38:55;38.13;;;16.80;;
10045;SDS011;5063;50.878;4.742;2022-12-10T02:41:46;32.53;;;15.67;;
10045;SDS011;5063;50.878;4.742;2022-12-10T02:44:15;31.07;;;16.47;;
10045;SDS011;5063;50.878;4.742;2022-12-10T02:46:44;34.33;;;16.13;;
10045;SDS011;5063;50.878;4.742;2022-12-10T02:49:13;30.53;;;16.37;;
10045;SDS011;5063;50.878;4.742;2022-12-10T02:51:40;33.80;;;16.87;;
10045;SDS011;5063;50.878;4.742;2022-12-10T02:54:07;30.40;;;16.03;;
10045;SDS011;5063;50.878;4.742;2022-12-10T02:57:00;31.90;;;16.50;;
10045;SDS011;5063;50.878;4.742;2022-12-10T03:00:08;33.73;;;16.30;;
10045;SDS011;5063;50.878;4.742;2022-12-10T03:03:17;31.23;;;16.20;;
10045;SDS011;5063;50.878;4.742;2022-12-10T03:05:40;32.17;;;16.97;;
10045;SDS011;5063;50.878;4.742;2022-12-10T03:11:01;34.87;;;16.27;;
10045;SDS011;5063;50.878;4.742;2022-12-10T03:13:47;35.43;;;17.77;;
10045;SDS011;5063;50.878;4.742;2022-12-10T03:16:19;37.63;;;17.23;;
10045;SDS011;5063;50.878;4.742;2022-12-10T03:18:47;39.57;;;17.73;;
10045;SDS011;5063;50.878;4.742;2022-12-10T03:21:17;34.03;;;17.47;;
10045;SDS011;5063;50.878;4.742;2022-12-10T03:23:45;33.07;;;16.30;;
10045;SDS011;5063;50.878;4.742;2022-12-10T03:26:12;37.93;;;17.90;;
10045;SDS011;5063;50.878;4.742;2022-12-10T03:28:41;36.93;;;17.50;;
10045;SDS011;5063;50.878;4.742;2022-12-10T03:31:13;40.20;;;17.97;;
10045;SDS011;5063;50.878;4.742;2022-12-10T03:33:40;34.47;;;17.47;;
10045;SDS011;5063;50.878;4.742;2022-12-10T03:36:07;34.37;;;16.57;;
10045;SDS011;5063;50.878;4.742;2022-12-10T03:38:33;32.17;;;15.97;;
10045;SDS011;5063;50.878;4.742;2022-12-10T03:41:00;32.10;;;16.57;;
10045;SDS011;5063;50.878;4.742;2022-12-10T03:43:26;31.60;;;15.33;;
10045;SDS011;5063;50.878;4.742;2022-12-10T03:45:52;28.90;;;15.53;;
10045;SDS011;5063;50.878;4.742;2022-12-10T03:48:18;36.80;;;18.57;;
10045;SDS011;5063;50.878;4.742;2022-12-10T03:50:43;42.97;;;20.33;;
10045;SDS011;5063;50.878;4.742;2022-12-10T03:53:09;33.37;;;18.10;;
10045;SDS011;5063;50.878;4.742;2022-12-10T03:55:35;32.73;;;17.67;;
10045;SDS011;5063;50.878;4.742;2022-12-10T03:58:01;35.03;;;17.53;;
10045;SDS011;5063;50.878;4.742;2022-12-10T04:00:26;40.70;;;18.67;;
10045;SDS011;5063;50.878;4.742;2022-12-10T04:02:52;40.63;;;18.60;;
10045;SDS011;5063;50.878;4.742;2022-12-10T04:05:18;50.30;;;18.80;;
10045;SDS011;5063;50.878;4.742;2022-12-10T04:07:44;40.90;;;19.57;;
10045;SDS011;5063;50.878;4.742;2022-12-10T04:10:09;48.00;;;20.13;;
10045;SDS011;5063;50.878;4.742;2022-12-10T04:12:35;44.03;;;20.80;;
10045;SDS011;5063;50.878;4.742;2022-12-10T04:15:01;41.43;;;19.60;;
10045;SDS011;5063;50.878;4.742;2022-12-10T04:17:45;41.80;;;19.73;;
10045;SDS011;5063;50.878;4.742;2022-12-10T04:20:10;40.20;;;19.30;;
10045;SDS011;5063;50.878;4.742;2022-12-10T04:22:56;42.07;;;19.70;;
10045;SDS011;5063;50.878;4.742;2022-12-10T04:25:48;42.53;;;20.17;;
10045;SDS011;5063;50.878;4.742;2022-12-10T04:28:32;49.63;;;21.20;;
10045;SDS011;5063;50.878;4.742;2022-12-10T04:30:58;48.67;;;20.73;;
10045;SDS011;5063;50.878;4.742;2022-12-10T04:33:23;44.63;;;19.70;;
10045;SDS011;5063;50.878;4.742;2022-12-10T04:35:49;40.70;;;19.30;;
10045;SDS011;5063;50.878;4.742;2022-12-10T04:38:15;41.73;;;19.77;;
10045;SDS011;5063;50.878;4.742;2022-12-10T04:40:40;37.97;;;19.63;;
10045;SDS011;5063;50.878;4.742;2022-12-10T04:43:06;41.27;;;19.67;;
10045;SDS011;5063;50.878;4.742;2022-12-10T04:45:33;41.87;;;20.73;;
10045;SDS011;5063;50.878;4.742;2022-12-10T04:48:00;42.23;;;20.17;;
10045;SDS011;5063;50.878;4.742;2022-12-10T04:50:26;43.93;;;19.60;;
10045;SDS011;5063;50.878;4.742;2022-12-10T04:52:52;44.60;;;21.33;;
10045;SDS011;5063;50.878;4.742;2022-12-10T04:55:17;46.20;;;20.43;;
10045;SDS011;5063;50.878;4.742;2022-12-10T04:57:43;45.07;;;20.60;;
10045;SDS011;5063;50.878;4.742;2022-12-10T05:00:09;42.30;;;20.23;;
10045;SDS011;5063;50.878;4.742;2022-12-10T05:02:35;43.00;;;19.03;;
10045;SDS011;5063;50.878;4.742;2022-12-10T05:05:01;44.07;;;20.03;;
10045;SDS011;5063;50.878;4.742;2022-12-10T05:07:26;43.73;;;21.33;;
10045;SDS011;5063;50.878;4.742;2022-12-10T05:09:52;40.33;;;20.53;;
10045;SDS011;5063;50.878;4.742;2022-12-10T05:12:18;38.23;;;18.57;;
10045;SDS011;5063;50.878;4.742;2022-12-10T05:14:44;39.40;;;18.33;;
10045;SDS011;5063;50.878;4.742;2022-12-10T05:17:09;35.23;;;18.23;;
10045;SDS011;5063;50.878;4.742;2022-12-10T05:19:35;42.03;;;19.00;;
10045;SDS011;5063;50.878;4.742;2022-12-10T05:22:01;39.53;;;18.83;;
10045;SDS011;5063;50.878;4.742;2022-12-10T05:24:45;41.67;;;18.97;;
10045;SDS011;5063;50.878;4.742;2022-12-10T05:27:11;46.67;;;19.87;;
10045;SDS011;5063;50.878;4.742;2022-12-10T05:29:37;43.17;;;20.97;;
10045;SDS011;5063;50.878;4.742;2022-12-10T05:32:02;36.43;;;20.20;;
10045;SDS011;5063;50.878;4.742;2022-12-10T05:34:28;44.90;;;21.70;;
10045;SDS011;5063;50.878;4.742;2022-12-10T05:36:54;45.10;;;20.47;;
10045;SDS011;5063;50.878;4.742;2022-12-10T05:39:20;39.83;;;21.20;;
10045;SDS011;5063;50.878;4.742;2022-12-10T05:41:45;42.23;;;20.77;;
10045;SDS011;5063;50.878;4.742;2022-12-10T05:44:11;40.80;;;19.87;;
10045;SDS011;5063;50.878;4.742;2022-12-10T05:46:38;43.63;;;20.90;;
10045;SDS011;5063;50.878;4.742;2022-12-10T05:49:04;48.37;;;20.47;;
10045;SDS011;5063;50.878;4.742;2022-12-10T05:51:32;49.13;;;22.43;;
10045;SDS011;5063;50.878;4.742;2022-12-10T05:54:00;47.10;;;20.37;;
10045;SDS011;5063;50.878;4.742;2022-12-10T05:56:29;51.43;;;20.77;;
10045;SDS011;5063;50.878;4.742;2022-12-10T05:58:57;52.90;;;21.07;;
10045;SDS011;5063;50.878;4.742;2022-12-10T06:01:25;42.93;;;20.70;;
10045;SDS011;5063;50.878;4.742;2022-12-10T06:03:53;42.03;;;19.60;;
10045;SDS011;5063;50.878;4.742;2022-12-10T06:06:20;42.47;;;20.27;;
10045;SDS011;5063;50.878;4.742;2022-12-10T06:08:48;39.87;;;18.93;;
10045;SDS011;5063;50.878;4.742;2022-12-10T06:11:14;38.97;;;17.60;;
10045;SDS011;5063;50.878;4.742;2022-12-10T06:13:40;42.10;;;19.43;;
10045;SDS011;5063;50.878;4.742;2022-12-10T06:16:09;35.83;;;18.17;;
10045;SDS011;5063;50.878;4.742;2022-12-10T06:18:36;36.93;;;17.43;;
10045;SDS011;5063;50.878;4.742;2022-12-10T06:21:03;41.37;;;19.33;;
10045;SDS011;5063;50.878;4.742;2022-12-10T06:23:38;42.97;;;20.07;;
10045;SDS011;5063;50.878;4.742;2022-12-10T06:26:04;42.13;;;20.47;;
10045;SDS011;5063;50.878;4.742;2022-12-10T06:28:35;53.37;;;22.13;;
10045;SDS011;5063;50.878;4.742;2022-12-10T06:31:02;46.40;;;20.20;;
10045;SDS011;5063;50.878;4.742;2022-12-10T06:33:28;46.43;;;20.43;;
10045;SDS011;5063;50.878;4.742;2022-12-10T06:35:54;43.43;;;19.17;;
10045;SDS011;5063;50.878;4.742;2022-12-10T06:38:20;48.47;;;20.30;;
10045;SDS011;5063;50.878;4.742;2022-12-10T06:40:45;44.00;;;22.30;;
10045;SDS011;5063;50.878;4.742;2022-12-10T06:43:11;46.13;;;20.93;;
10045;SDS011;5063;50.878;4.742;2022-12-10T06:45:40;45.53;;;22.07;;
10045;SDS011;5063;50.878;4.742;2022-12-10T06:48:07;53.23;;;23.17;;
10045;SDS011;5063;50.878;4.742;2022-12-10T06:50:34;48.77;;;22.67;;
10045;SDS011;5063;50.878;4.742;2022-12-10T06:53:00;43.90;;;20.77;;
10045;SDS011;5063;50.878;4.742;2022-12-10T06:55:26;50.63;;;21.03;;
10045;SDS011;5063;50.878;4.742;2022-12-10T06:57:52;58.50;;;22.00;;
10045;SDS011;5063;50.878;4.742;2022-12-10T07:00:19;50.93;;;22.40;;
10045;SDS011;5063;50.878;4.742;2022-12-10T07:02:46;53.93;;;22.47;;
10045;SDS011;5063;50.878;4.742;2022-12-10T07:05:12;52.80;;;23.60;;
10045;SDS011;5063;50.878;4.742;2022-12-10T07:07:37;43.53;;;20.83;;
10045;SDS011;5063;50.878;4.742;2022-12-10T07:10:03;50.47;;;20.33;;
10045;SDS011;5063;50.878;4.742;2022-12-10T07:12:30;42.43;;;21.67;;
10045;SDS011;5063;50.878;4.742;2022-12-10T07:14:55;41.67;;;20.97;;
10045;SDS011;5063;50.878;4.742;2022-12-10T07:17:21;51.57;;;23.23;;
10045;SDS011;5063;50.878;4.742;2022-12-10T07:19:47;55.17;;;22.70;;
10045;SDS011;5063;50.878;4.742;2022-12-10T07:22:12;52.83;;;21.70;;
10045;SDS011;5063;50.878;4.742;2022-12-10T07:24:38;57.47;;;23.97;;
10045;SDS011;5063;50.878;4.742;2022-12-10T07:27:04;58.70;;;24.77;;
10045;SDS011;5063;50.878;4.742;2022-12-10T07:29:31;57.97;;;23.07;;
10045;SDS011;5063;50.878;4.742;2022-12-10T07:31:57;56.93;;;23.50;;
10045;SDS011;5063;50.878;4.742;2022-12-10T07:34:22;63.27;;;24.40;;
10045;SDS011;5063;50.878;4.742;2022-12-10T07:36:48;66.47;;;26.47;;
10045;SDS011;5063;50.878;4.742;2022-12-10T07:39:14;62.43;;;25.17;;
10045;SDS011;5063;50.878;4.742;2022-12-10T07:41:51;73.53;;;25.03;;
10045;SDS011;5063;50.878;4.742;2022-12-10T07:44:19;71.37;;;25.47;;
10045;SDS011;5063;50.878;4.742;2022-12-10T07:46:46;108.60;;;30.17;;
10045;SDS011;5063;50.878;4.742;2022-12-10T07:49:13;63.37;;;26.87;;
10045;SDS011;5063;50.878;4.742;2022-12-10T07:51:39;62.63;;;25.83;;
10045;SDS011;5063;50.878;4.742;2022-12-10T07:54:05;73.97;;;28.10;;
10045;SDS011;5063;50.878;4.742;2022-12-10T07:56:30;51.77;;;24.07;;
10045;SDS011;5063;50.878;4.742;2022-12-10T07:58:56;64.27;;;24.67;;
10045;SDS011;5063;50.878;4.742;2022-12-10T08:01:25;68.37;;;24.93;;
10045;SDS011;5063;50.878;4.742;2022-12-10T08:03:52;55.90;;;22.50;;
10045;SDS011;5063;50.878;4.742;2022-12-10T08:06:21;51.30;;;20.23;;
10045;SDS011;5063;50.878;4.742;2022-12-10T08:08:48;60.43;;;23.83;;
10045;SDS011;5063;50.878;4.742;2022-12-10T08:11:15;65.73;;;22.17;;
10045;SDS011;5063;50.878;4.742;2022-12-10T08:13:42;67.30;;;25.37;;
10045;SDS011;5063;50.878;4.742;2022-12-10T08:16:18;77.33;;;27.10;;
10045;SDS011;5063;50.878;4.742;2022-12-10T08:18:47;70.93;;;23.27;;
10045;SDS011;5063;50.878;4.742;2022-12-10T08:21:20;61.83;;;22.60;;
10045;SDS011;5063;50.878;4.742;2022-12-10T08:23:48;64.17;;;23.47;;
10045;SDS011;5063;50.878;4.742;2022-12-10T08:26:16;56.63;;;22.90;;
10045;SDS011;5063;50.878;4.742;2022-12-10T08:28:47;50.47;;;20.57;;
10045;SDS011;5063;50.878;4.742;2022-12-10T08:31:14;53.70;;;19.63;;
10045;SDS011;5063;50.878;4.742;2022-12-10T08:33:41;44.97;;;20.13;;
10045;SDS011;5063;50.878;4.742;2022-12-10T08:36:08;56.27;;;21.07;;
10045;SDS011;5063;50.878;4.742;2022-12-10T08:38:36;51.07;;;21.23;;
10045;SDS011;5063;50.878;4.742;2022-12-10T08:41:09;53.50;;;22.57;;
10045;SDS011;5063;50.878;4.742;2022-12-10T08:43:46;51.47;;;19.93;;
10045;SDS011;5063;50.878;4.742;2022-12-10T08:46:13;46.73;;;21.13;;
10045;SDS011;5063;50.878;4.742;2022-12-10T08:48:39;50.47;;;20.50;;
10045;SDS011;5063;50.878;4.742;2022-12-10T08:51:06;59.47;;;21.27;;
10045;SDS011;5063;50.878;4.742;2022-12-10T08:53:33;46.93;;;20.03;;
10045;SDS011;5063;50.878;4.742;2022-12-10T08:55:59;41.67;;;19.80;;
10045;SDS011;5063;50.878;4.742;2022-12-10T08:58:25;51.93;;;20.27;;
10045;SDS011;5063;50.878;4.742;2022-12-10T09:00:51;45.20;;;18.80;;
10045;SDS011;5063;50.878;4.742;2022-12-10T09:03:17;37.37;;;17.47;;
10045;SDS011;5063;50.878;4.742;2022-12-10T09:05:43;45.33;;;18.33;;
10045;SDS011;5063;50.878;4.742;2022-12-10T09:08:09;42.60;;;19.40;;
10045;SDS011;5063;50.878;4.742;2022-12-10T09:10:36;45.43;;;18.73;;
10045;SDS011;5063;50.878;4.742;2022-12-10T09:13:03;49.43;;;20.30;;
10045;SDS011;5063;50.878;4.742;2022-12-10T09:15:29;43.83;;;19.37;;
10045;SDS011;5063;50.878;4.742;2022-12-10T09:17:55;41.13;;;18.33;;
10045;SDS011;5063;50.878;4.742;2022-12-10T09:20:20;51.33;;;18.03;;
10045;SDS011;5063;50.878;4.742;2022-12-10T09:22:46;39.53;;;18.93;;
10045;SDS011;5063;50.878;4.742;2022-12-10T09:25:11;39.10;;;18.10;;
10045;SDS011;5063;50.878;4.742;2022-12-10T09:27:40;44.77;;;18.57;;
10045;SDS011;5063;50.878;4.742;2022-12-10T09:30:07;41.50;;;18.00;;
10045;SDS011;5063;50.878;4.742;2022-12-10T09:32:33;71.23;;;19.93;;
10045;SDS011;5063;50.878;4.742;2022-12-10T09:34:59;42.17;;;18.30;;
10045;SDS011;5063;50.878;4.742;2022-12-10T09:37:25;46.80;;;18.63;;
10045;SDS011;5063;50.878;4.742;2022-12-10T09:39:51;52.47;;;18.93;;
10045;SDS011;5063;50.878;4.742;2022-12-10T09:50:54;41.80;;;17.03;;
10045;SDS011;5063;50.878;4.742;2022-12-10T09:53:29;40.47;;;16.97;;
10045;SDS011;5063;50.878;4.742;2022-12-10T09:55:56;35.43;;;17.47;;
10045;SDS011;5063;50.878;4.742;2022-12-10T09:58:24;39.20;;;16.37;;
10045;SDS011;5063;50.878;4.742;2022-12-10T10:00:59;38.03;;;16.27;;
10045;SDS011;5063;50.878;4.742;2022-12-10T10:03:28;39.83;;;17.73;;
10045;SDS011;5063;50.878;4.742;2022-12-10T10:06:03;36.70;;;17.17;;
10045;SDS011;5063;50.878;4.742;2022-12-10T10:08:33;34.27;;;17.33;;
10045;SDS011;5063;50.878;4.742;2022-12-10T10:11:11;41.67;;;17.60;;
10045;SDS011;5063;50.878;4.742;2022-12-10T10:14:11;42.57;;;17.93;;
10045;SDS011;5063;50.878;4.742;2022-12-10T10:16:43;35.73;;;17.10;;
10045;SDS011;5063;50.878;4.742;2022-12-10T10:19:15;34.63;;;16.87;;
10045;SDS011;5063;50.878;4.742;2022-12-10T10:21:46;39.87;;;16.17;;
10045;SDS011;5063;50.878;4.742;2022-12-10T10:24:26;38.47;;;17.23;;
10045;SDS011;5063;50.878;4.742;2022-12-10T10:26:58;35.30;;;17.40;;
10045;SDS011;5063;50.878;4.742;2022-12-10T10:29:42;40.77;;;17.70;;
10045;SDS011;5063;50.878;4.742;2022-12-10T10:34:46;33.67;;;16.13;;
10045;SDS011;5063;50.878;4.742;2022-12-10T10:39:54;38.97;;;17.23;;
10045;SDS011;5063;50.878;4.742;2022-12-10T10:42:37;39.67;;;18.67;;
10045;SDS011;5063;50.878;4.742;2022-12-10T10:48:15;42.60;;;17.73;;
10045;SDS011;5063;50.878;4.742;2022-12-10T10:50:44;49.60;;;19.73;;
10045;SDS011;5063;50.878;4.742;2022-12-10T10:53:21;46.93;;;18.73;;
10045;SDS011;5063;50.878;4.742;2022-12-10T10:55:49;36.17;;;16.63;;
10045;SDS011;5063;50.878;4.742;2022-12-10T10:58:21;37.83;;;16.87;;
10045;SDS011;5063;50.878;4.742;2022-12-10T11:00:53;35.50;;;17.03;;
10045;SDS011;5063;50.878;4.742;2022-12-10T11:03:28;31.93;;;15.80;;
10045;SDS011;5063;50.878;4.742;2022-12-10T11:05:55;35.07;;;16.90;;
10045;SDS011;5063;50.878;4.742;2022-12-10T11:08:23;38.43;;;18.53;;
10045;SDS011;5063;50.878;4.742;2022-12-10T11:10:51;37.60;;;17.67;;
10045;SDS011;5063;50.878;4.742;2022-12-10T11:13:26;41.73;;;19.93;;
10045;SDS011;5063;50.878;4.742;2022-12-10T11:16:09;38.50;;;18.33;;
10045;SDS011;5063;50.878;4.742;2022-12-10T11:21:33;35.43;;;15.77;;
10045;SDS011;5063;50.878;4.742;2022-12-10T11:23:59;36.33;;;15.67;;
10045;SDS011;5063;50.878;4.742;2022-12-10T11:26:50;30.50;;;15.23;;
10045;SDS011;5063;50.878;4.742;2022-12-10T11:37:34;33.17;;;16.30;;
10045;SDS011;5063;50.878;4.742;2022-12-10T11:51:08;33.27;;;16.73;;
10045;SDS011;5063;50.878;4.742;2022-12-10T11:56:21;35.60;;;17.67;;
10045;SDS011;5063;50.878;4.742;2022-12-10T12:04:13;34.90;;;16.40;;
10045;SDS011;5063;50.878;4.742;2022-12-10T12:07:18;72.60;;;24.13;;
10045;SDS011;5063;50.878;4.742;2022-12-10T12:12:38;36.07;;;17.30;;
10045;SDS011;5063;50.878;4.742;2022-12-10T12:15:19;39.37;;;17.10;;
10045;SDS011;5063;50.878;4.742;2022-12-10T12:18:04;62.83;;;21.43;;
10045;SDS011;5063;50.878;4.742;2022-12-10T12:21:01;33.27;;;16.53;;
10045;SDS011;5063;50.878;4.742;2022-12-10T12:23:31;37.63;;;18.37;;
10045;SDS011;5063;50.878;4.742;2022-12-10T12:27:00;35.23;;;16.40;;
10045;SDS011;5063;50.878;4.742;2022-12-10T12:29:27;39.40;;;19.23;;
10045;SDS011;5063;50.878;4.742;2022-12-10T12:34:53;41.93;;;19.30;;
10045;SDS011;5063;50.878;4.742;2022-12-10T12:37:30;36.90;;;17.07;;
10045;SDS011;5063;50.878;4.742;2022-12-10T12:40:20;45.33;;;21.03;;
10045;SDS011;5063;50.878;4.742;2022-12-10T12:43:16;34.57;;;17.63;;
10045;SDS011;5063;50.878;4.742;2022-12-10T12:45:48;50.77;;;19.20;;
10045;SDS011;5063;50.878;4.742;2022-12-10T12:48:23;35.57;;;18.07;;
10045;SDS011;5063;50.878;4.742;2022-12-10T12:53:24;44.40;;;18.00;;
10045;SDS011;5063;50.878;4.742;2022-12-10T13:03:50;46.27;;;18.63;;
10045;SDS011;5063;50.878;4.742;2022-12-10T13:06:27;37.07;;;17.03;;
10045;SDS011;5063;50.878;4.742;2022-12-10T13:11:31;28.83;;;15.40;;
10045;SDS011;5063;50.878;4.742;2022-12-10T13:22:03;41.27;;;18.17;;
10045;SDS011;5063;50.878;4.742;2022-12-10T13:29:46;31.30;;;15.40;;
10045;SDS011;5063;50.878;4.742;2022-12-10T13:40:36;31.97;;;17.13;;
10045;SDS011;5063;50.878;4.742;2022-12-10T13:48:55;33.03;;;15.87;;
10045;SDS011;5063;50.878;4.742;2022-12-10T14:00:20;39.23;;;19.10;;
10045;SDS011;5063;50.878;4.742;2022-12-10T14:06:18;33.93;;;17.77;;
10045;SDS011;5063;50.878;4.742;2022-12-10T14:11:28;33.93;;;15.87;;
10045;SDS011;5063;50.878;4.742;2022-12-10T14:14:01;34.13;;;15.77;;
10045;SDS011;5063;50.878;4.742;2022-12-10T14:16:30;35.60;;;16.57;;
10045;SDS011;5063;50.878;4.742;2022-12-10T14:18:59;36.57;;;16.40;;
10045;SDS011;5063;50.878;4.742;2022-12-10T14:21:35;38.63;;;16.93;;
10045;SDS011;5063;50.878;4.742;2022-12-10T14:24:04;32.87;;;15.93;;
10045;SDS011;5063;50.878;4.742;2022-12-10T14:26:32;31.67;;;15.97;;
10045;SDS011;5063;50.878;4.742;2022-12-10T14:29:01;36.80;;;;;
10045;SDS011;5063;50.878;4.742;2022-12-10T14:31:44;41.33;;;18.03;;
10045;SDS011;5063;50.878;4.742;2022-12-10T14:34:14;38.27;;;17.10;;
10045;SDS011;5063;50.878;4.742;2022-12-10T14:36:53;42.37;;;19.33;;
10045;SDS011;5063;50.878;4.742;2022-12-10T14:39:26;36.50;;;17.63;;
10045;SDS011;5063;50.878;4.742;2022-12-10T14:41:55;36.47;;;18.50;;
10045;SDS011;5063;50.878;4.742;2022-12-10T14:44:23;37.93;;;17.57;;
10045;SDS011;5063;50.878;4.742;2022-12-10T14:46:49;41.50;;;20.27;;
10045;SDS011;5063;50.878;4.742;2022-12-10T14:49:17;41.80;;;17.87;;
10045;SDS011;5063;50.878;4.742;2022-12-10T14:51:50;40.20;;;19.10;;
10045;SDS011;5063;50.878;4.742;2022-12-10T14:54:24;41.27;;;18.23;;
10045;SDS011;5063;50.878;4.742;2022-12-10T14:56:50;58.97;;;20.47;;
10045;SDS011;5063;50.878;4.742;2022-12-10T14:59:19;41.40;;;19.00;;
10045;SDS011;5063;50.878;4.742;2022-12-10T15:01:51;56.67;;;21.70;;
10045;SDS011;5063;50.878;4.742;2022-12-10T15:04:21;40.53;;;19.30;;
10045;SDS011;5063;50.878;4.742;2022-12-10T15:06:49;54.60;;;20.07;;
10045;SDS011;5063;50.878;4.742;2022-12-10T15:09:18;51.50;;;20.63;;
10045;SDS011;5063;50.878;4.742;2022-12-10T15:11:57;40.83;;;19.63;;
10045;SDS011;5063;50.878;4.742;2022-12-10T15:14:24;40.10;;;19.37;;
10045;SDS011;5063;50.878;4.742;2022-12-10T15:16:52;31.27;;;16.10;;
10045;SDS011;5063;50.878;4.742;2022-12-10T15:21:58;39.90;;;18.03;;
10045;SDS011;5063;50.878;4.742;2022-12-10T15:24:42;37.27;;;18.67;;
10045;SDS011;5063;50.878;4.742;2022-12-10T15:27:15;35.93;;;17.03;;
10045;SDS011;5063;50.878;4.742;2022-12-10T15:29:45;41.03;;;16.67;;
10045;SDS011;5063;50.878;4.742;2022-12-10T15:32:12;40.87;;;16.87;;
10045;SDS011;5063;50.878;4.742;2022-12-10T15:35:15;38.07;;;17.37;;
10045;SDS011;5063;50.878;4.742;2022-12-10T15:37:38;31.40;;;16.10;;
10045;SDS011;5063;50.878;4.742;2022-12-10T15:40:06;29.93;;;16.23;;
10045;SDS011;5063;50.878;4.742;2022-12-10T15:42:47;36.20;;;16.83;;
10045;SDS011;5063;50.878;4.742;2022-12-10T15:47:44;39.03;;;17.17;;
10045;SDS011;5063;50.878;4.742;2022-12-10T15:50:10;37.03;;;17.07;;
10045;SDS011;5063;50.878;4.742;2022-12-10T15:52:36;37.67;;;17.53;;
10045;SDS011;5063;50.878;4.742;2022-12-10T15:55:01;36.60;;;17.27;;
10045;SDS011;5063;50.878;4.742;2022-12-10T15:59:55;34.80;;;17.00;;
10045;SDS011;5063;50.878;4.742;2022-12-10T16:02:37;36.57;;;16.17;;
10045;SDS011;5063;50.878;4.742;2022-12-10T16:05:26;33.40;;;17.60;;
10045;SDS011;5063;50.878;4.742;2022-12-10T16:07:52;37.83;;;17.27;;
10045;SDS011;5063;50.878;4.742;2022-12-10T16:10:20;37.30;;;17.57;;
10045;SDS011;5063;50.878;4.742;2022-12-10T16:13:21;29.13;;;14.90;;
10045;SDS011;5063;50.878;4.742;2022-12-10T16:15:45;33.40;;;16.10;;
10045;SDS011;5063;50.878;4.742;2022-12-10T16:18:25;31.40;;;14.13;;
10045;SDS011;5063;50.878;4.742;2022-12-10T16:20:51;40.30;;;15.83;;
10045;SDS011;5063;50.878;4.742;2022-12-10T16:23:17;35.20;;;16.90;;
10045;SDS011;5063;50.878;4.742;2022-12-10T16:25:43;38.07;;;14.50;;
10045;SDS011;5063;50.878;4.742;2022-12-10T16:28:15;35.50;;;16.37;;
10045;SDS011;5063;50.878;4.742;2022-12-10T16:30:43;36.23;;;17.17;;
10045;SDS011;5063;50.878;4.742;2022-12-10T16:33:11;32.83;;;16.00;;
10045;SDS011;5063;50.878;4.742;2022-12-10T16:35:38;32.10;;;16.23;;
10045;SDS011;5063;50.878;4.742;2022-12-10T16:38:04;29.77;;;15.43;;
10045;SDS011;5063;50.878;4.742;2022-12-10T16:40:29;32.63;;;15.43;;
10045;SDS011;5063;50.878;4.742;2022-12-10T16:42:55;35.27;;;16.13;;
10045;SDS011;5063;50.878;4.742;2022-12-10T16:45:29;44.53;;;17.67;;
10045;SDS011;5063;50.878;4.742;2022-12-10T16:48:00;37.33;;;17.80;;
10045;SDS011;5063;50.878;4.742;2022-12-10T16:50:25;35.03;;;16.50;;
10045;SDS011;5063;50.878;4.742;2022-12-10T16:52:52;31.40;;;15.87;;
10045;SDS011;5063;50.878;4.742;2022-12-10T16:55:20;37.37;;;17.37;;
10045;SDS011;5063;50.878;4.742;2022-12-10T16:57:48;35.07;;;16.40;;
10045;SDS011;5063;50.878;4.742;2022-12-10T17:00:15;32.57;;;17.10;;
10045;SDS011;5063;50.878;4.742;2022-12-10T17:02:44;35.03;;;15.97;;
10045;SDS011;5063;50.878;4.742;2022-12-10T17:05:14;35.83;;;16.17;;
10045;SDS011;5063;50.878;4.742;2022-12-10T17:07:42;39.97;;;17.13;;
10045;SDS011;5063;50.878;4.742;2022-12-10T17:10:10;34.20;;;16.63;;
10045;SDS011;5063;50.878;4.742;2022-12-10T17:12:37;36.93;;;17.37;;